sensor_id;sensor_type;location;lat;lon;timestamp;P1;durP1;ratioP1;P2;durP2;ratioP2
50066;SDS011;35952;52.524;13.340;2023-04-24T00:00:49;7.70;;;7.00;;
50066;SDS011;35952;52.524;13.340;2023-04-24T00:03:15;7.13;;;6.53;;
50066;SDS011;35952;52.524;13.340;2023-04-24T00:05:41;10.53;;;8.33;;
50066;SDS011;35952;52.524;13.340;2023-04-24T00:08:07;7.50;;;6.90;;
50066;SDS011;35952;52.524;13.340;2023-04-24T00:10:33;7.17;;;6.57;;
50066;SDS011;35952;52.524;13.340;2023-04-24T00:12:58;8.80;;;7.13;;
50066;SDS011;35952;52.524;13.340;2023-04-24T00:15:24;7.50;;;6.80;;
50066;SDS011;35952;52.524;13.340;2023-04-24T00:17:49;8.00;;;7.27;;
50066;SDS011;35952;52.524;13.340;2023-04-24T00:20:15;7.93;;;6.83;;
50066;SDS011;35952;52.524;13.340;2023-04-24T00:22:40;7.50;;;6.80;;
50066;SDS011;35952;52.524;13.340;2023-04-24T00:25:06;9.37;;;7.63;;
50066;SDS011;35952;52.524;13.340;2023-04-24T00:27:32;8.27;;;7.47;;
50066;SDS011;35952;52.524;13.340;2023-04-24T00:29:57;8.07;;;7.27;;
50066;SDS011;35952;52.524;13.340;2023-04-24T00:32:23;7.13;;;6.53;;
50066;SDS011;35952;52.524;13.340;2023-04-24T00:34:48;7.87;;;7.07;;
50066;SDS011;35952;52.524;13.340;2023-04-24T00:37:14;7.77;;;7.07;;
50066;SDS011;35952;52.524;13.340;2023-04-24T00:39:40;8.50;;;7.77;;
50066;SDS011;35952;52.524;13.340;2023-04-24T00:42:05;8.37;;;7.33;;
50066;SDS011;35952;52.524;13.340;2023-04-24T00:44:37;8.53;;;7.83;;
50066;SDS011;35952;52.524;13.340;2023-04-24T00:47:02;8.37;;;7.60;;
50066;SDS011;35952;52.524;13.340;2023-04-24T00:49:28;7.50;;;6.90;;
50066;SDS011;35952;52.524;13.340;2023-04-24T00:51:54;8.40;;;7.60;;
50066;SDS011;35952;52.524;13.340;2023-04-24T00:54:19;8.07;;;7.40;;
50066;SDS011;35952;52.524;13.340;2023-04-24T00:56:45;7.30;;;6.60;;
50066;SDS011;35952;52.524;13.340;2023-04-24T00:59:15;8.03;;;7.27;;
50066;SDS011;35952;52.524;13.340;2023-04-24T01:01:42;7.90;;;7.20;;
50066;SDS011;35952;52.524;13.340;2023-04-24T01:04:08;7.70;;;7.10;;
50066;SDS011;35952;52.524;13.340;2023-04-24T01:06:36;7.97;;;7.17;;
50066;SDS011;35952;52.524;13.340;2023-04-24T01:09:04;8.00;;;7.40;;
50066;SDS011;35952;52.524;13.340;2023-04-24T01:11:30;9.40;;;8.40;;
50066;SDS011;35952;52.524;13.340;2023-04-24T01:13:56;8.03;;;7.33;;
50066;SDS011;35952;52.524;13.340;2023-04-24T01:16:22;8.93;;;7.87;;
50066;SDS011;35952;52.524;13.340;2023-04-24T01:18:48;8.57;;;7.87;;
50066;SDS011;35952;52.524;13.340;2023-04-24T01:21:14;8.27;;;7.40;;
50066;SDS011;35952;52.524;13.340;2023-04-24T01:23:43;7.50;;;6.90;;
50066;SDS011;35952;52.524;13.340;2023-04-24T01:26:09;8.03;;;7.33;;
50066;SDS011;35952;52.524;13.340;2023-04-24T01:28:35;7.63;;;7.00;;
50066;SDS011;35952;52.524;13.340;2023-04-24T01:31:00;8.00;;;7.30;;
50066;SDS011;35952;52.524;13.340;2023-04-24T01:33:26;8.00;;;7.30;;
50066;SDS011;35952;52.524;13.340;2023-04-24T01:35:51;8.40;;;7.70;;
50066;SDS011;35952;52.524;13.340;2023-04-24T01:38:17;8.13;;;7.43;;
50066;SDS011;35952;52.524;13.340;2023-04-24T01:40:43;8.40;;;7.70;;
50066;SDS011;35952;52.524;13.340;2023-04-24T01:43:08;9.13;;;8.37;;
50066;SDS011;35952;52.524;13.340;2023-04-24T01:45:34;8.20;;;7.50;;
50066;SDS011;35952;52.524;13.340;2023-04-24T01:48:00;8.80;;;8.00;;
50066;SDS011;35952;52.524;13.340;2023-04-24T01:50:25;8.93;;;8.13;;
50066;SDS011;35952;52.524;13.340;2023-04-24T01:52:51;8.80;;;8.00;;
50066;SDS011;35952;52.524;13.340;2023-04-24T01:55:16;9.10;;;8.20;;
50066;SDS011;35952;52.524;13.340;2023-04-24T01:57:42;9.47;;;8.47;;
50066;SDS011;35952;52.524;13.340;2023-04-24T02:00:07;8.80;;;8.10;;
50066;SDS011;35952;52.524;13.340;2023-04-24T02:02:33;9.17;;;8.37;;
50066;SDS011;35952;52.524;13.340;2023-04-24T02:04:59;8.83;;;8.03;;
50066;SDS011;35952;52.524;13.340;2023-04-24T02:07:25;8.13;;;7.47;;
50066;SDS011;35952;52.524;13.340;2023-04-24T02:09:51;9.00;;;8.20;;
50066;SDS011;35952;52.524;13.340;2023-04-24T02:12:16;10.00;;;9.10;;
50066;SDS011;35952;52.524;13.340;2023-04-24T02:14:44;10.07;;;9.07;;
50066;SDS011;35952;52.524;13.340;2023-04-24T02:17:10;9.17;;;8.23;;
50066;SDS011;35952;52.524;13.340;2023-04-24T02:19:37;9.30;;;8.40;;
50066;SDS011;35952;52.524;13.340;2023-04-24T02:22:02;9.53;;;8.53;;
50066;SDS011;35952;52.524;13.340;2023-04-24T02:24:28;11.10;;;10.10;;
50066;SDS011;35952;52.524;13.340;2023-04-24T02:26:53;8.97;;;8.23;;
50066;SDS011;35952;52.524;13.340;2023-04-24T02:29:19;8.90;;;8.07;;
50066;SDS011;35952;52.524;13.340;2023-04-24T02:31:45;8.90;;;8.10;;
50066;SDS011;35952;52.524;13.340;2023-04-24T02:34:10;9.43;;;8.53;;
50066;SDS011;35952;52.524;13.340;2023-04-24T02:36:36;9.93;;;9.00;;
50066;SDS011;35952;52.524;13.340;2023-04-24T02:39:01;9.37;;;8.47;;
50066;SDS011;35952;52.524;13.340;2023-04-24T02:41:28;10.57;;;9.57;;
50066;SDS011;35952;52.524;13.340;2023-04-24T02:43:56;8.93;;;8.30;;
50066;SDS011;35952;52.524;13.340;2023-04-24T02:46:23;8.80;;;8.00;;
50066;SDS011;35952;52.524;13.340;2023-04-24T02:48:48;10.10;;;9.23;;
50066;SDS011;35952;52.524;13.340;2023-04-24T02:51:14;10.00;;;9.07;;
50066;SDS011;35952;52.524;13.340;2023-04-24T02:53:39;9.90;;;9.10;;
50066;SDS011;35952;52.524;13.340;2023-04-24T02:56:05;9.80;;;8.90;;
50066;SDS011;35952;52.524;13.340;2023-04-24T02:58:31;9.70;;;8.90;;
50066;SDS011;35952;52.524;13.340;2023-04-24T03:00:56;8.60;;;7.90;;
50066;SDS011;35952;52.524;13.340;2023-04-24T03:03:22;9.23;;;8.43;;
50066;SDS011;35952;52.524;13.340;2023-04-24T03:05:48;10.20;;;9.30;;
50066;SDS011;35952;52.524;13.340;2023-04-24T03:08:14;10.23;;;9.30;;
50066;SDS011;35952;52.524;13.340;2023-04-24T03:10:39;11.27;;;10.23;;
50066;SDS011;35952;52.524;13.340;2023-04-24T03:13:05;11.53;;;9.10;;
50066;SDS011;35952;52.524;13.340;2023-04-24T03:15:30;12.20;;;10.83;;
50066;SDS011;35952;52.524;13.340;2023-04-24T03:17:56;11.43;;;10.17;;
50066;SDS011;35952;52.524;13.340;2023-04-24T03:20:22;11.10;;;9.80;;
50066;SDS011;35952;52.524;13.340;2023-04-24T03:22:47;10.80;;;9.70;;
50066;SDS011;35952;52.524;13.340;2023-04-24T03:25:13;10.30;;;9.43;;
50066;SDS011;35952;52.524;13.340;2023-04-24T03:27:38;10.80;;;9.70;;
50066;SDS011;35952;52.524;13.340;2023-04-24T03:30:05;11.00;;;9.90;;
50066;SDS011;35952;52.524;13.340;2023-04-24T03:32:31;10.10;;;9.10;;
50066;SDS011;35952;52.524;13.340;2023-04-24T03:34:57;11.60;;;10.50;;
50066;SDS011;35952;52.524;13.340;2023-04-24T03:37:23;10.10;;;9.10;;
50066;SDS011;35952;52.524;13.340;2023-04-24T03:39:48;9.87;;;8.97;;
50066;SDS011;35952;52.524;13.340;2023-04-24T03:42:14;9.23;;;8.43;;
50066;SDS011;35952;52.524;13.340;2023-04-24T03:44:39;10.30;;;9.30;;
50066;SDS011;35952;52.524;13.340;2023-04-24T03:47:05;10.23;;;9.17;;
50066;SDS011;35952;52.524;13.340;2023-04-24T03:49:30;12.80;;;8.70;;
50066;SDS011;35952;52.524;13.340;2023-04-24T03:51:56;10.23;;;9.33;;
50066;SDS011;35952;52.524;13.340;2023-04-24T03:54:22;9.70;;;8.67;;
50066;SDS011;35952;52.524;13.340;2023-04-24T03:56:47;9.87;;;8.87;;
50066;SDS011;35952;52.524;13.340;2023-04-24T03:59:13;9.00;;;8.20;;
50066;SDS011;35952;52.524;13.340;2023-04-24T04:01:38;9.50;;;8.70;;
50066;SDS011;35952;52.524;13.340;2023-04-24T04:04:04;10.20;;;9.20;;
50066;SDS011;35952;52.524;13.340;2023-04-24T04:06:30;9.90;;;9.00;;
50066;SDS011;35952;52.524;13.340;2023-04-24T04:08:56;8.43;;;7.73;;
50066;SDS011;35952;52.524;13.340;2023-04-24T04:11:22;7.97;;;7.23;;
50066;SDS011;35952;52.524;13.340;2023-04-24T04:13:48;7.83;;;7.13;;
50066;SDS011;35952;52.524;13.340;2023-04-24T04:16:13;8.60;;;7.83;;
50066;SDS011;35952;52.524;13.340;2023-04-24T04:18:41;21.40;;;14.07;;
50066;SDS011;35952;52.524;13.340;2023-04-24T04:21:07;11.70;;;10.60;;
50066;SDS011;35952;52.524;13.340;2023-04-24T04:23:33;9.40;;;8.33;;
50066;SDS011;35952;52.524;13.340;2023-04-24T04:25:58;8.90;;;8.00;;
50066;SDS011;35952;52.524;13.340;2023-04-24T04:28:24;9.23;;;8.40;;
50066;SDS011;35952;52.524;13.340;2023-04-24T04:30:50;7.83;;;7.13;;
50066;SDS011;35952;52.524;13.340;2023-04-24T04:33:19;9.17;;;8.27;;
50066;SDS011;35952;52.524;13.340;2023-04-24T04:35:45;11.00;;;7.97;;
50066;SDS011;35952;52.524;13.340;2023-04-24T04:38:13;8.63;;;7.10;;
50066;SDS011;35952;52.524;13.340;2023-04-24T04:40:39;7.77;;;6.97;;
50066;SDS011;35952;52.524;13.340;2023-04-24T04:43:05;8.63;;;7.10;;
50066;SDS011;35952;52.524;13.340;2023-04-24T04:45:31;7.23;;;6.63;;
50066;SDS011;35952;52.524;13.340;2023-04-24T04:47:58;8.40;;;7.20;;
50066;SDS011;35952;52.524;13.340;2023-04-24T04:50:25;8.17;;;7.30;;
50066;SDS011;35952;52.524;13.340;2023-04-24T04:52:51;7.73;;;7.00;;
50066;SDS011;35952;52.524;13.340;2023-04-24T04:55:17;8.90;;;8.00;;
50066;SDS011;35952;52.524;13.340;2023-04-24T04:57:44;8.70;;;7.90;;
50066;SDS011;35952;52.524;13.340;2023-04-24T05:00:10;16.43;;;9.90;;
50066;SDS011;35952;52.524;13.340;2023-04-24T05:02:37;11.70;;;10.37;;
50066;SDS011;35952;52.524;13.340;2023-04-24T05:05:02;8.27;;;7.47;;
50066;SDS011;35952;52.524;13.340;2023-04-24T05:07:28;7.97;;;7.27;;
50066;SDS011;35952;52.524;13.340;2023-04-24T05:09:54;10.20;;;8.80;;
50066;SDS011;35952;52.524;13.340;2023-04-24T05:12:19;7.17;;;6.57;;
50066;SDS011;35952;52.524;13.340;2023-04-24T05:14:45;6.50;;;6.00;;
50066;SDS011;35952;52.524;13.340;2023-04-24T05:17:10;11.60;;;7.10;;
50066;SDS011;35952;52.524;13.340;2023-04-24T05:19:36;6.83;;;6.23;;
50066;SDS011;35952;52.524;13.340;2023-04-24T05:22:03;7.20;;;6.60;;
50066;SDS011;35952;52.524;13.340;2023-04-24T05:24:31;7.37;;;6.77;;
50066;SDS011;35952;52.524;13.340;2023-04-24T05:27:00;7.43;;;6.73;;
50066;SDS011;35952;52.524;13.340;2023-04-24T05:29:27;7.93;;;7.17;;
50066;SDS011;35952;52.524;13.340;2023-04-24T05:31:55;6.70;;;5.40;;
50066;SDS011;35952;52.524;13.340;2023-04-24T05:34:21;6.83;;;6.13;;
50066;SDS011;35952;52.524;13.340;2023-04-24T05:36:50;16.43;;;11.57;;
50066;SDS011;35952;52.524;13.340;2023-04-24T05:39:16;5.27;;;4.87;;
50066;SDS011;35952;52.524;13.340;2023-04-24T05:41:42;5.37;;;4.97;;
50066;SDS011;35952;52.524;13.340;2023-04-24T05:44:11;6.63;;;5.40;;
50066;SDS011;35952;52.524;13.340;2023-04-24T05:46:36;6.23;;;4.63;;
50066;SDS011;35952;52.524;13.340;2023-04-24T05:49:02;9.00;;;6.60;;
50066;SDS011;35952;52.524;13.340;2023-04-24T05:51:28;6.43;;;4.80;;
50066;SDS011;35952;52.524;13.340;2023-04-24T05:53:53;6.93;;;4.63;;
50066;SDS011;35952;52.524;13.340;2023-04-24T05:56:19;4.60;;;4.20;;
50066;SDS011;35952;52.524;13.340;2023-04-24T05:58:45;4.60;;;4.20;;
50066;SDS011;35952;52.524;13.340;2023-04-24T06:01:11;6.20;;;5.60;;
50066;SDS011;35952;52.524;13.340;2023-04-24T06:03:39;5.43;;;4.80;;
50066;SDS011;35952;52.524;13.340;2023-04-24T06:06:05;4.97;;;4.20;;
50066;SDS011;35952;52.524;13.340;2023-04-24T06:08:31;4.67;;;3.97;;
50066;SDS011;35952;52.524;13.340;2023-04-24T06:10:57;5.07;;;4.00;;
50066;SDS011;35952;52.524;13.340;2023-04-24T06:13:23;4.50;;;4.20;;
50066;SDS011;35952;52.524;13.340;2023-04-24T06:15:50;6.40;;;4.17;;
50066;SDS011;35952;52.524;13.340;2023-04-24T06:18:15;4.20;;;3.90;;
50066;SDS011;35952;52.524;13.340;2023-04-24T06:20:41;4.60;;;4.10;;
50066;SDS011;35952;52.524;13.340;2023-04-24T06:23:07;4.20;;;3.47;;
50066;SDS011;35952;52.524;13.340;2023-04-24T06:25:33;3.37;;;3.03;;
50066;SDS011;35952;52.524;13.340;2023-04-24T06:27:58;11.70;;;9.40;;
50066;SDS011;35952;52.524;13.340;2023-04-24T06:30:24;3.40;;;3.20;;
50066;SDS011;35952;52.524;13.340;2023-04-24T06:32:50;3.03;;;2.83;;
50066;SDS011;35952;52.524;13.340;2023-04-24T06:35:19;7.60;;;5.10;;
50066;SDS011;35952;52.524;13.340;2023-04-24T06:37:47;3.23;;;2.97;;
50066;SDS011;35952;52.524;13.340;2023-04-24T06:40:13;2.70;;;2.40;;
50066;SDS011;35952;52.524;13.340;2023-04-24T06:42:38;2.57;;;2.37;;
50066;SDS011;35952;52.524;13.340;2023-04-24T06:45:04;2.70;;;2.50;;
50066;SDS011;35952;52.524;13.340;2023-04-24T06:47:30;3.53;;;2.40;;
50066;SDS011;35952;52.524;13.340;2023-04-24T06:49:59;3.30;;;2.43;;
50066;SDS011;35952;52.524;13.340;2023-04-24T06:52:25;2.77;;;2.57;;
50066;SDS011;35952;52.524;13.340;2023-04-24T06:54:50;3.17;;;2.87;;
50066;SDS011;35952;52.524;13.340;2023-04-24T06:57:17;2.03;;;1.93;;
50066;SDS011;35952;52.524;13.340;2023-04-24T06:59:42;2.30;;;2.10;;
50066;SDS011;35952;52.524;13.340;2023-04-24T07:02:08;2.23;;;2.10;;
50066;SDS011;35952;52.524;13.340;2023-04-24T07:04:33;1.90;;;1.80;;
50066;SDS011;35952;52.524;13.340;2023-04-24T07:07:05;2.80;;;2.00;;
50066;SDS011;35952;52.524;13.340;2023-04-24T07:09:31;2.00;;;1.83;;
50066;SDS011;35952;52.524;13.340;2023-04-24T07:11:57;1.80;;;1.70;;
50066;SDS011;35952;52.524;13.340;2023-04-24T07:14:22;1.90;;;1.70;;
50066;SDS011;35952;52.524;13.340;2023-04-24T07:16:51;2.60;;;2.40;;
50066;SDS011;35952;52.524;13.340;2023-04-24T07:19:16;1.60;;;1.50;;
50066;SDS011;35952;52.524;13.340;2023-04-24T07:21:42;1.67;;;1.57;;
50066;SDS011;35952;52.524;13.340;2023-04-24T07:24:07;1.70;;;1.47;;
50066;SDS011;35952;52.524;13.340;2023-04-24T07:26:38;5.23;;;1.63;;
50066;SDS011;35952;52.524;13.340;2023-04-24T07:29:04;4.70;;;2.40;;
50066;SDS011;35952;52.524;13.340;2023-04-24T07:31:31;2.10;;;1.47;;
50066;SDS011;35952;52.524;13.340;2023-04-24T07:33:56;1.67;;;1.53;;
50066;SDS011;35952;52.524;13.340;2023-04-24T07:36:23;1.87;;;1.40;;
50066;SDS011;35952;52.524;13.340;2023-04-24T07:38:49;1.60;;;1.40;;
50066;SDS011;35952;52.524;13.340;2023-04-24T07:41:14;3.00;;;1.77;;
50066;SDS011;35952;52.524;13.340;2023-04-24T07:43:40;2.90;;;2.17;;
50066;SDS011;35952;52.524;13.340;2023-04-24T07:46:07;2.03;;;1.60;;
50066;SDS011;35952;52.524;13.340;2023-04-24T07:48:35;4.87;;;1.80;;
50066;SDS011;35952;52.524;13.340;2023-04-24T07:51:01;2.00;;;1.80;;
50066;SDS011;35952;52.524;13.340;2023-04-24T07:53:27;2.10;;;1.40;;
50066;SDS011;35952;52.524;13.340;2023-04-24T07:55:53;2.50;;;1.87;;
50066;SDS011;35952;52.524;13.340;2023-04-24T07:58:20;2.23;;;1.47;;
50066;SDS011;35952;52.524;13.340;2023-04-24T08:00:46;1.63;;;1.53;;
50066;SDS011;35952;52.524;13.340;2023-04-24T08:03:11;6.03;;;1.43;;
50066;SDS011;35952;52.524;13.340;2023-04-24T08:05:37;2.17;;;1.20;;
50066;SDS011;35952;52.524;13.340;2023-04-24T08:08:03;1.90;;;1.57;;
50066;SDS011;35952;52.524;13.340;2023-04-24T08:10:29;1.37;;;1.27;;
50066;SDS011;35952;52.524;13.340;2023-04-24T08:12:54;1.70;;;1.60;;
50066;SDS011;35952;52.524;13.340;2023-04-24T08:15:20;3.00;;;1.30;;
50066;SDS011;35952;52.524;13.340;2023-04-24T08:17:46;1.60;;;1.50;;
50066;SDS011;35952;52.524;13.340;2023-04-24T08:20:11;1.90;;;1.80;;
50066;SDS011;35952;52.524;13.340;2023-04-24T08:22:40;1.93;;;1.70;;
50066;SDS011;35952;52.524;13.340;2023-04-24T08:25:06;1.40;;;1.30;;
50066;SDS011;35952;52.524;13.340;2023-04-24T08:27:32;1.50;;;1.40;;
50066;SDS011;35952;52.524;13.340;2023-04-24T08:29:58;1.50;;;1.40;;
50066;SDS011;35952;52.524;13.340;2023-04-24T08:32:24;2.20;;;1.50;;
50066;SDS011;35952;52.524;13.340;2023-04-24T08:34:52;2.17;;;1.20;;
50066;SDS011;35952;52.524;13.340;2023-04-24T08:37:18;1.40;;;1.30;;
50066;SDS011;35952;52.524;13.340;2023-04-24T08:39:44;1.43;;;1.33;;
50066;SDS011;35952;52.524;13.340;2023-04-24T08:42:09;1.10;;;1.00;;
50066;SDS011;35952;52.524;13.340;2023-04-24T08:44:37;1.40;;;1.20;;
50066;SDS011;35952;52.524;13.340;2023-04-24T08:47:03;1.40;;;1.30;;
50066;SDS011;35952;52.524;13.340;2023-04-24T08:49:30;1.37;;;1.20;;
50066;SDS011;35952;52.524;13.340;2023-04-24T08:51:56;2.83;;;1.30;;
50066;SDS011;35952;52.524;13.340;2023-04-24T08:54:22;1.30;;;1.20;;
50066;SDS011;35952;52.524;13.340;2023-04-24T08:56:48;1.93;;;1.30;;
50066;SDS011;35952;52.524;13.340;2023-04-24T08:59:15;1.83;;;1.10;;
50066;SDS011;35952;52.524;13.340;2023-04-24T09:01:41;1.40;;;1.30;;
50066;SDS011;35952;52.524;13.340;2023-04-24T09:04:08;1.40;;;1.30;;
50066;SDS011;35952;52.524;13.340;2023-04-24T09:06:38;2.10;;;1.30;;
50066;SDS011;35952;52.524;13.340;2023-04-24T09:09:04;4.30;;;1.40;;
50066;SDS011;35952;52.524;13.340;2023-04-24T09:11:30;1.40;;;1.30;;
50066;SDS011;35952;52.524;13.340;2023-04-24T09:13:57;1.87;;;1.40;;
50066;SDS011;35952;52.524;13.340;2023-04-24T09:16:23;1.60;;;1.50;;
50066;SDS011;35952;52.524;13.340;2023-04-24T09:18:50;1.70;;;1.60;;
50066;SDS011;35952;52.524;13.340;2023-04-24T09:21:16;4.50;;;1.50;;
50066;SDS011;35952;52.524;13.340;2023-04-24T09:23:41;1.50;;;1.40;;
50066;SDS011;35952;52.524;13.340;2023-04-24T09:26:08;1.97;;;1.30;;
50066;SDS011;35952;52.524;13.340;2023-04-24T09:28:36;3.73;;;2.03;;
50066;SDS011;35952;52.524;13.340;2023-04-24T09:31:09;2.13;;;1.90;;
50066;SDS011;35952;52.524;13.340;2023-04-24T09:33:53;1.60;;;1.50;;
50066;SDS011;35952;52.524;13.340;2023-04-24T09:36:26;2.70;;;2.30;;
50066;SDS011;35952;52.524;13.340;2023-04-24T09:38:59;2.07;;;1.87;;
50066;SDS011;35952;52.524;13.340;2023-04-24T09:41:26;1.80;;;1.70;;
50066;SDS011;35952;52.524;13.340;2023-04-24T09:43:56;3.90;;;2.13;;
50066;SDS011;35952;52.524;13.340;2023-04-24T09:46:29;2.07;;;1.97;;
50066;SDS011;35952;52.524;13.340;2023-04-24T09:48:56;2.27;;;1.70;;
50066;SDS011;35952;52.524;13.340;2023-04-24T09:51:34;2.00;;;1.90;;
50066;SDS011;35952;52.524;13.340;2023-04-24T09:54:02;2.30;;;2.10;;
50066;SDS011;35952;52.524;13.340;2023-04-24T09:56:38;3.57;;;2.60;;
50066;SDS011;35952;52.524;13.340;2023-04-24T09:59:07;2.00;;;1.80;;
50066;SDS011;35952;52.524;13.340;2023-04-24T10:01:33;5.20;;;3.60;;
50066;SDS011;35952;52.524;13.340;2023-04-24T10:03:59;2.60;;;1.67;;
50066;SDS011;35952;52.524;13.340;2023-04-24T10:06:32;1.93;;;1.60;;
50066;SDS011;35952;52.524;13.340;2023-04-24T10:08:58;2.37;;;1.43;;
50066;SDS011;35952;52.524;13.340;2023-04-24T10:11:27;4.63;;;2.23;;
50066;SDS011;35952;52.524;13.340;2023-04-24T10:13:54;1.60;;;1.50;;
50066;SDS011;35952;52.524;13.340;2023-04-24T10:16:23;2.30;;;1.60;;
50066;SDS011;35952;52.524;13.340;2023-04-24T10:18:49;1.43;;;1.33;;
50066;SDS011;35952;52.524;13.340;2023-04-24T10:21:17;1.50;;;1.40;;
50066;SDS011;35952;52.524;13.340;2023-04-24T10:23:43;2.03;;;1.70;;
50066;SDS011;35952;52.524;13.340;2023-04-24T10:26:12;1.40;;;1.30;;
50066;SDS011;35952;52.524;13.340;2023-04-24T10:28:44;3.00;;;1.40;;
50066;SDS011;35952;52.524;13.340;2023-04-24T10:31:10;1.40;;;1.30;;
50066;SDS011;35952;52.524;13.340;2023-04-24T10:33:37;2.43;;;1.60;;
50066;SDS011;35952;52.524;13.340;2023-04-24T10:36:06;1.60;;;1.50;;
50066;SDS011;35952;52.524;13.340;2023-04-24T10:38:34;2.03;;;1.70;;
50066;SDS011;35952;52.524;13.340;2023-04-24T10:41:11;1.83;;;1.70;;
50066;SDS011;35952;52.524;13.340;2023-04-24T10:43:41;1.50;;;1.40;;
50066;SDS011;35952;52.524;13.340;2023-04-24T10:46:07;1.63;;;1.50;;
50066;SDS011;35952;52.524;13.340;2023-04-24T10:48:35;2.60;;;1.73;;
50066;SDS011;35952;52.524;13.340;2023-04-24T10:51:01;1.83;;;1.63;;
50066;SDS011;35952;52.524;13.340;2023-04-24T10:53:28;3.27;;;2.00;;
50066;SDS011;35952;52.524;13.340;2023-04-24T10:55:58;6.40;;;4.57;;
50066;SDS011;35952;52.524;13.340;2023-04-24T10:58:25;2.17;;;2.03;;
50066;SDS011;35952;52.524;13.340;2023-04-24T11:01:02;2.90;;;2.13;;
50066;SDS011;35952;52.524;13.340;2023-04-24T11:03:28;3.10;;;2.53;;
50066;SDS011;35952;52.524;13.340;2023-04-24T11:05:56;2.73;;;2.53;;
50066;SDS011;35952;52.524;13.340;2023-04-24T11:08:23;1.60;;;1.50;;
50066;SDS011;35952;52.524;13.340;2023-04-24T11:10:59;1.57;;;1.47;;
50066;SDS011;35952;52.524;13.340;2023-04-24T11:16:25;2.60;;;1.67;;
50066;SDS011;35952;52.524;13.340;2023-04-24T11:24:23;1.60;;;1.50;;
50066;SDS011;35952;52.524;13.340;2023-04-24T11:32:16;2.43;;;1.40;;
50066;SDS011;35952;52.524;13.340;2023-04-24T11:35:01;1.97;;;1.77;;
50066;SDS011;35952;52.524;13.340;2023-04-24T11:37:40;2.70;;;2.07;;
50066;SDS011;35952;52.524;13.340;2023-04-24T11:40:07;6.67;;;2.20;;
50066;SDS011;35952;52.524;13.340;2023-04-24T11:42:37;5.20;;;2.27;;
50066;SDS011;35952;52.524;13.340;2023-04-24T11:45:07;6.83;;;2.50;;
50066;SDS011;35952;52.524;13.340;2023-04-24T11:47:37;2.53;;;2.23;;
50066;SDS011;35952;52.524;13.340;2023-04-24T11:50:04;2.40;;;2.30;;
50066;SDS011;35952;52.524;13.340;2023-04-24T11:52:31;6.50;;;2.60;;
50066;SDS011;35952;52.524;13.340;2023-04-24T11:54:56;4.93;;;2.30;;
50066;SDS011;35952;52.524;13.340;2023-04-24T11:57:23;2.33;;;2.23;;
50066;SDS011;35952;52.524;13.340;2023-04-24T11:59:52;2.47;;;1.97;;
50066;SDS011;35952;52.524;13.340;2023-04-24T12:02:24;2.90;;;2.70;;
50066;SDS011;35952;52.524;13.340;2023-04-24T12:04:52;3.73;;;2.50;;
50066;SDS011;35952;52.524;13.340;2023-04-24T12:07:18;2.40;;;2.27;;
50066;SDS011;35952;52.524;13.340;2023-04-24T12:09:44;2.63;;;2.43;;
50066;SDS011;35952;52.524;13.340;2023-04-24T12:12:11;2.53;;;2.33;;
50066;SDS011;35952;52.524;13.340;2023-04-24T12:14:42;2.03;;;1.80;;
50066;SDS011;35952;52.524;13.340;2023-04-24T12:17:15;2.50;;;1.70;;
50066;SDS011;35952;52.524;13.340;2023-04-24T12:19:47;1.70;;;1.60;;
50066;SDS011;35952;52.524;13.340;2023-04-24T12:22:13;3.00;;;2.07;;
50066;SDS011;35952;52.524;13.340;2023-04-24T12:27:29;3.00;;;1.40;;
50066;SDS011;35952;52.524;13.340;2023-04-24T12:29:56;2.33;;;2.13;;
50066;SDS011;35952;52.524;13.340;2023-04-24T12:32:22;1.50;;;1.40;;
50066;SDS011;35952;52.524;13.340;2023-04-24T12:34:50;1.50;;;1.40;;
50066;SDS011;35952;52.524;13.340;2023-04-24T12:37:16;2.13;;;1.27;;
50066;SDS011;35952;52.524;13.340;2023-04-24T12:42:46;2.00;;;1.80;;
50066;SDS011;35952;52.524;13.340;2023-04-24T12:45:12;2.17;;;1.33;;
50066;SDS011;35952;52.524;13.340;2023-04-24T12:47:38;1.77;;;1.50;;
50066;SDS011;35952;52.524;13.340;2023-04-24T12:50:06;4.63;;;2.27;;
50066;SDS011;35952;52.524;13.340;2023-04-24T12:52:39;2.03;;;1.40;;
50066;SDS011;35952;52.524;13.340;2023-04-24T12:55:05;1.40;;;1.27;;
50066;SDS011;35952;52.524;13.340;2023-04-24T12:57:35;1.63;;;1.53;;
50066;SDS011;35952;52.524;13.340;2023-04-24T13:00:02;2.90;;;2.00;;
50066;SDS011;35952;52.524;13.340;2023-04-24T13:02:29;1.83;;;1.57;;
50066;SDS011;35952;52.524;13.340;2023-04-24T13:04:56;1.67;;;1.53;;
50066;SDS011;35952;52.524;13.340;2023-04-24T13:07:25;1.90;;;1.77;;
50066;SDS011;35952;52.524;13.340;2023-04-24T13:09:52;1.80;;;1.70;;
50066;SDS011;35952;52.524;13.340;2023-04-24T13:12:19;5.63;;;1.80;;
50066;SDS011;35952;52.524;13.340;2023-04-24T13:14:45;1.80;;;1.70;;
50066;SDS011;35952;52.524;13.340;2023-04-24T13:17:10;2.00;;;1.63;;
50066;SDS011;35952;52.524;13.340;2023-04-24T13:19:38;2.53;;;1.70;;
50066;SDS011;35952;52.524;13.340;2023-04-24T13:22:05;2.50;;;1.60;;
50066;SDS011;35952;52.524;13.340;2023-04-24T13:24:31;2.17;;;1.80;;
50066;SDS011;35952;52.524;13.340;2023-04-24T13:26:57;2.20;;;2.00;;
50066;SDS011;35952;52.524;13.340;2023-04-24T13:29:24;1.70;;;1.60;;
50066;SDS011;35952;52.524;13.340;2023-04-24T13:31:50;2.33;;;1.90;;
50066;SDS011;35952;52.524;13.340;2023-04-24T13:34:19;2.20;;;1.50;;
50066;SDS011;35952;52.524;13.340;2023-04-24T13:36:44;3.53;;;2.00;;
50066;SDS011;35952;52.524;13.340;2023-04-24T13:39:10;4.90;;;1.70;;
50066;SDS011;35952;52.524;13.340;2023-04-24T13:41:35;1.80;;;1.70;;
50066;SDS011;35952;52.524;13.340;2023-04-24T13:44:01;1.60;;;1.50;;
50066;SDS011;35952;52.524;13.340;2023-04-24T13:46:28;2.30;;;1.40;;
50066;SDS011;35952;52.524;13.340;2023-04-24T13:48:53;2.00;;;1.77;;
50066;SDS011;35952;52.524;13.340;2023-04-24T13:51:19;1.90;;;1.60;;
50066;SDS011;35952;52.524;13.340;2023-04-24T13:53:45;1.80;;;1.70;;
50066;SDS011;35952;52.524;13.340;2023-04-24T13:56:10;1.57;;;1.33;;
50066;SDS011;35952;52.524;13.340;2023-04-24T13:58:37;1.67;;;1.50;;
50066;SDS011;35952;52.524;13.340;2023-04-24T14:01:03;2.57;;;1.83;;
50066;SDS011;35952;52.524;13.340;2023-04-24T14:03:29;1.70;;;1.60;;
50066;SDS011;35952;52.524;13.340;2023-04-24T14:05:58;2.67;;;2.27;;
50066;SDS011;35952;52.524;13.340;2023-04-24T14:08:24;5.23;;;1.40;;
50066;SDS011;35952;52.524;13.340;2023-04-24T14:10:50;1.77;;;1.63;;
50066;SDS011;35952;52.524;13.340;2023-04-24T14:13:16;1.97;;;1.70;;
50066;SDS011;35952;52.524;13.340;2023-04-24T14:15:42;2.30;;;1.70;;
50066;SDS011;35952;52.524;13.340;2023-04-24T14:18:07;1.70;;;1.60;;
50066;SDS011;35952;52.524;13.340;2023-04-24T14:20:33;3.50;;;1.70;;
50066;SDS011;35952;52.524;13.340;2023-04-24T14:22:58;2.20;;;1.50;;
50066;SDS011;35952;52.524;13.340;2023-04-24T14:25:24;1.80;;;1.60;;
50066;SDS011;35952;52.524;13.340;2023-04-24T14:27:50;2.27;;;1.60;;
50066;SDS011;35952;52.524;13.340;2023-04-24T14:30:16;4.90;;;1.87;;
50066;SDS011;35952;52.524;13.340;2023-04-24T14:32:44;2.80;;;1.93;;
50066;SDS011;35952;52.524;13.340;2023-04-24T14:35:10;2.07;;;1.73;;
50066;SDS011;35952;52.524;13.340;2023-04-24T14:37:35;4.40;;;2.10;;
50066;SDS011;35952;52.524;13.340;2023-04-24T14:40:01;1.93;;;1.83;;
50066;SDS011;35952;52.524;13.340;2023-04-24T14:42:29;2.37;;;2.10;;
50066;SDS011;35952;52.524;13.340;2023-04-24T14:44:54;1.80;;;1.70;;
50066;SDS011;35952;52.524;13.340;2023-04-24T14:47:20;1.97;;;1.87;;
50066;SDS011;35952;52.524;13.340;2023-04-24T14:49:48;2.70;;;2.07;;